Time;durP1;ratioP1;P1;durP2;ratioP2;P2;SDS_P1;SDS_P2;PMS_P1;PMS_P2;Temp;Humidity;BMP_temperature;BMP_pressure;BME280_temperature;BME280_humidity;BME280_pressure;Samples;Min_cycle;Max_cycle;Signal;HPM_P1;HPM_P2
2022/05/10 00:00:06;;;;;;;3.35;2.65;;;;;;;15.29;59.76;101733.72;4995912;28;102419;-87
2022/05/10 00:02:35;;;;;;;3.00;2.70;;;;;;;15.28;59.83;101732.09;4995305;28;104100;-87
2022/05/10 00:05:02;;;;;;;2.90;2.60;;;;;;;15.27;59.42;101731.28;4989361;28;102417;-86
2022/05/10 00:07:33;;;;;;;2.90;2.60;;;;;;;15.27;59.58;101734.00;4982294;28;102046;-87
2022/05/10 00:09:59;;;;;;;4.65;2.60;;;;;;;15.27;59.53;101730.47;4995726;28;102437;-87
2022/05/10 00:12:26;;;;;;;4.15;3.10;;;;;;;15.27;59.56;101730.47;4994876;28;104112;-87
2022/05/10 00:14:53;;;;;;;3.35;2.70;;;;;;;15.26;59.53;101718.66;4993268;28;102120;-87
2022/05/10 00:17:24;;;;;;;2.90;2.60;;;;;;;15.28;59.73;101723.84;4995463;28;102602;-86
2022/05/10 00:19:54;;;;;;;3.17;2.45;;;;;;;15.26;59.60;101724.16;4995415;28;102464;-86
2022/05/10 00:22:20;;;;;;;2.97;2.70;;;;;;;15.26;59.48;101715.09;4993654;28;103866;-86
2022/05/10 00:24:50;;;;;;;3.33;2.50;;;;;;;15.26;59.47;101715.09;4994883;28;102120;-86
2022/05/10 00:27:17;;;;;;;4.72;2.60;;;;;;;15.25;59.38;101727.16;4982170;28;102404;-86
2022/05/10 00:29:43;;;;;;;3.42;2.63;;;;;;;15.25;59.68;101727.16;4994777;28;102926;-86
2022/05/10 00:32:10;;;;;;;2.80;2.60;;;;;;;15.25;59.51;101724.41;4977556;28;103848;-86
2022/05/10 00:34:38;;;;;;;2.92;2.20;;;;;;;15.25;59.57;101721.66;4973732;28;101942;-86
2022/05/10 00:37:06;;;;;;;3.88;2.70;;;;;;;15.26;59.39;101734.31;4975328;28;102280;-88
2022/05/10 00:39:33;;;;;;;3.10;2.70;;;;;;;15.24;59.53;101736.50;5006630;28;102798;-87
2022/05/10 00:42:05;;;;;;;4.28;2.72;;;;;;;15.24;59.63;101736.50;4984049;28;103878;-86
2022/05/10 00:44:38;;;;;;;2.95;2.67;;;;;;;15.24;59.81;101739.22;4987194;28;102185;-86
2022/05/10 00:47:11;;;;;;;2.75;2.55;;;;;;;15.23;59.42;101740.34;4994459;28;102360;-87
2022/05/10 00:49:47;;;;;;;2.67;2.45;;;;;;;15.24;59.51;101741.97;4992725;28;102598;-88
2022/05/10 00:52:21;;;;;;;3.05;2.70;;;;;;;15.23;59.74;101748.56;4985443;28;104123;-87
2022/05/10 00:54:58;;;;;;;3.97;2.47;;;;;;;15.23;59.32;101745.81;4995245;28;102072;-87
2022/05/10 00:57:31;;;;;;;4.47;2.83;;;;;;;15.23;59.28;101748.56;4974719;28;102423;-86
2022/05/10 01:00:04;;;;;;;2.97;2.65;;;;;;;15.22;59.29;101755.97;4975682;28;102103;-86
2022/05/10 01:02:41;;;;;;;3.88;2.53;;;;;;;15.23;59.28;101745.81;4992236;28;104105;-86
2022/05/10 01:05:14;;;;;;;4.20;2.60;;;;;;;15.22;59.41;101744.16;4993232;28;101979;-86
2022/05/10 01:07:52;;;;;;;3.45;2.60;;;;;;;15.22;59.42;101736.78;4992553;28;102388;-85
2022/05/10 01:10:27;;;;;;;2.90;2.60;;;;;;;15.22;59.49;101741.41;4994464;28;102290;-86
2022/05/10 01:13:05;;;;;;;2.65;2.45;;;;;;;15.21;59.56;101734.28;4993861;28;102984;-86
2022/05/10 01:15:34;;;;;;;3.00;2.30;;;;;;;15.21;59.44;101739.78;4993137;28;102337;-84
2022/05/10 01:18:01;;;;;;;2.85;2.47;;;;;;;15.20;59.47;101736.22;4975972;28;102079;-86
2022/05/10 01:20:35;;;;;;;3.08;2.58;;;;;;;15.20;59.47;101736.22;4975853;28;102148;-86
2022/05/10 01:23:34;;;;;;;3.65;2.35;;;;;;;15.19;59.41;101742.81;4973729;28;103941;-85
2022/05/10 01:26:07;;;;;;;2.40;2.13;;;;;;;15.20;59.51;101735.41;4992730;28;102100;-85
2022/05/10 01:28:40;;;;;;;2.42;2.17;;;;;;;15.20;59.16;101735.41;4974555;28;101951;-85
2022/05/10 01:31:12;;;;;;;5.80;2.70;;;;;;;15.19;59.70;101739.25;4980324;28;102303;-86
2022/05/10 01:33:44;;;;;;;3.47;2.35;;;;;;;15.20;59.48;101746.38;4993981;28;103950;-86
2022/05/10 01:36:25;;;;;;;3.60;2.28;;;;;;;15.19;59.32;101739.25;4991887;28;101872;-85
2022/05/10 01:38:58;;;;;;;3.60;2.30;;;;;;;15.19;59.14;101731.03;4993133;28;102517;-85
2022/05/10 01:41:34;;;;;;;4.85;2.47;;;;;;;15.18;59.32;101732.09;4993232;28;102726;-86
2022/05/10 01:44:10;;;;;;;2.88;2.65;;;;;;;15.18;59.22;101734.84;4993706;28;103851;-86
2022/05/10 01:46:36;;;;;;;3.08;2.40;;;;;;;15.18;59.33;101737.59;4994678;28;102287;-85
2022/05/10 01:49:17;;;;;;;3.08;2.53;;;;;;;15.17;59.29;101725.81;4993973;28;102365;-86
2022/05/10 01:51:49;;;;;;;3.00;2.50;;;;;;;15.17;59.32;101735.94;4993410;28;102350;-86
2022/05/10 01:54:57;;;;;;;3.15;2.60;;;;;;;15.17;59.31;101734.03;4994438;28;103926;-86
2022/05/10 01:57:25;;;;;;;3.08;2.38;;;;;;;15.17;59.46;101741.44;4983577;28;102430;-85
2022/05/10 01:59:59;;;;;;;2.40;2.20;;;;;;;15.17;59.33;101736.78;4995094;28;101902;-85
2022/05/10 02:02:28;;;;;;;3.15;2.60;;;;;;;15.16;59.08;101735.13;4979020;28;102121;-85
2022/05/10 02:04:59;;;;;;;2.47;2.28;;;;;;;15.16;59.20;101732.41;4974112;28;102762;-85
2022/05/10 02:07:28;;;;;;;3.35;2.65;;;;;;;15.17;59.31;101741.44;4977745;28;102759;-86
2022/05/10 02:10:00;;;;;;;3.33;2.35;;;;;;;15.16;59.41;101740.63;4973664;28;102539;-85
2022/05/10 02:12:35;;;;;;;2.90;2.50;;;;;;;15.16;59.06;101737.06;4994201;28;102547;-86
2022/05/10 02:15:08;;;;;;;3.05;2.30;;;;;;;15.14;59.40;101732.66;4987844;28;103723;-86
2022/05/10 02:17:39;;;;;;;3.22;2.50;;;;;;;15.16;59.06;101745.28;4975747;28;101836;-85
2022/05/10 02:20:13;;;;;;;3.28;2.42;;;;;;;15.16;58.98;101750.78;4975547;28;101933;-86
2022/05/10 02:22:46;;;;;;;3.08;2.50;;;;;;;15.16;58.90;101750.78;4992155;28;102045;-86
2022/05/10 02:25:17;;;;;;;2.90;2.40;;;;;;;15.16;59.42;101750.78;5002428;28;103890;-86
2022/05/10 02:27:48;;;;;;;3.03;2.60;;;;;;;15.16;59.34;101753.50;4996566;28;102660;-86
2022/05/10 02:30:20;;;;;;;2.38;2.17;;;;;;;15.15;58.94;101747.22;4985341;28;102552;-86
2022/05/10 02:33:06;;;;;;;2.60;2.25;;;;;;;15.16;58.95;101751.59;4996894;28;102017;-86
2022/05/10 02:35:41;;;;;;;2.80;2.20;;;;;;;15.14;58.99;101738.13;4994970;28;104026;-86
2022/05/10 02:38:12;;;;;;;2.63;2.42;;;;;;;15.14;58.91;101740.06;4995051;28;101988;-86
2022/05/10 02:40:41;;;;;;;3.13;2.30;;;;;;;15.14;59.13;101743.63;4993700;28;102708;-86
2022/05/10 02:43:12;;;;;;;4.03;2.35;;;;;;;15.15;59.03;101749.97;4989571;28;102160;-86
2022/05/10 02:45:42;;;;;;;2.75;2.22;;;;;;;15.14;59.03;101749.09;4980268;28;104317;-86
2022/05/10 02:48:20;;;;;;;2.80;2.20;;;;;;;15.16;59.14;101745.28;4996438;28;102546;-86
2022/05/10 02:50:46;;;;;;;3.20;2.40;;;;;;;15.14;59.30;101743.63;4983377;28;102368;-87
2022/05/10 02:53:13;;;;;;;3.05;2.45;;;;;;;15.14;59.15;101751.84;4988723;28;102373;-87
2022/05/10 02:55:47;;;;;;;3.50;2.55;;;;;;;15.13;59.30;101747.47;4997236;28;104000;-87
2022/05/10 02:58:20;;;;;;;2.25;1.95;;;;;;;15.13;59.19;101741.16;4998307;28;102031;-86
2022/05/10 03:00:49;;;;;;;2.60;2.28;;;;;;;15.13;59.22;101747.47;4985235;28;102384;-86
2022/05/10 03:03:20;;;;;;;3.58;2.38;;;;;;;15.14;59.35;101749.09;5000902;28;101817;-86
2022/05/10 03:05:47;;;;;;;3.25;2.28;;;;;;;15.13;59.37;101758.44;5000984;28;104175;-87
2022/05/10 03:08:14;;;;;;;2.33;2.13;;;;;;;15.13;59.14;101758.44;4983670;28;102410;-88
2022/05/10 03:10:41;;;;;;;2.90;2.20;;;;;;;15.13;59.12;101749.41;4998346;28;102127;-88
2022/05/10 03:13:07;;;;;;;3.10;2.30;;;;;;;15.13;59.19;101757.63;5000871;28;102023;-88
2022/05/10 03:15:33;;;;;;;2.28;2.08;;;;;;;15.13;59.08;101752.94;4978259;28;104102;-87
2022/05/10 03:18:02;;;;;;;2.35;2.03;;;;;;;15.12;59.01;101756.81;4978644;28;102452;-87
2022/05/10 03:20:28;;;;;;;2.20;1.97;;;;;;;15.12;58.99;101751.31;4995935;28;102441;-88
2022/05/10 03:22:56;;;;;;;4.00;2.42;;;;;;;15.12;59.14;101759.53;4997783;28;102091;-87
2022/05/10 03:25:22;;;;;;;2.47;1.90;;;;;;;15.12;59.20;101756.81;4995900;28;104094;-88
2022/05/10 03:27:49;;;;;;;2.40;2.17;;;;;;;15.12;59.00;101767.78;4992054;28;101950;-88
2022/05/10 03:30:16;;;;;;;2.38;1.90;;;;;;;15.12;59.11;101775.19;4990484;28;102529;-88
2022/05/10 03:32:43;;;;;;;2.50;2.03;;;;;;;15.11;58.84;101768.88;4996635;28;102220;-88
2022/05/10 03:35:15;;;;;;;2.92;1.90;;;;;;;15.12;58.94;101772.44;4980525;28;103911;-89
2022/05/10 03:37:43;;;;;;;2.95;2.28;;;;;;;15.11;58.99;101766.13;4995932;28;102045;-88
2022/05/10 03:40:11;;;;;;;3.17;2.15;;;;;;;15.11;58.71;101763.41;4992265;28;102480;-88
2022/05/10 03:42:49;;;;;;;2.10;1.83;;;;;;;15.10;59.05;101759.00;4992757;28;102357;-88
2022/05/10 03:45:18;;;;;;;4.32;2.00;;;;;;;15.12;58.88;101772.44;4985200;28;104106;-88
2022/05/10 03:47:46;;;;;;;2.30;1.80;;;;;;;15.10;58.97;101775.44;4995408;28;102640;-89
2022/05/10 03:50:16;;;;;;;3.35;2.28;;;;;;;15.10;58.73;101780.91;4990923;28;102676;-88
2022/05/10 03:52:45;;;;;;;3.08;2.10;;;;;;;15.10;58.60;101775.44;4991085;28;102451;-86
2022/05/10 03:55:16;;;;;;;3.50;1.92;;;;;;;15.11;58.91;101779.84;4995204;28;104074;-86
2022/05/10 03:57:44;;;;;;;2.42;2.03;;;;;;;15.10;58.91;101780.91;4983251;28;101944;-86
2022/05/10 04:00:14;;;;;;;3.58;2.10;;;;;;;15.10;58.72;101772.69;4993128;28;102441;-86
2022/05/10 04:02:41;;;;;;;2.95;1.73;;;;;;;15.10;58.48;101775.44;4995982;28;102145;-85
2022/05/10 04:05:09;;;;;;;2.33;1.80;;;;;;;15.10;58.75;101780.91;4990707;28;104096;-88
2022/05/10 04:07:37;;;;;;;5.63;2.10;;;;;;;15.11;58.80;101774.38;4995186;28;101890;-87
2022/05/10 04:10:06;;;;;;;2.43;2.20;;;;;;;15.12;58.78;101773.25;4985106;28;102297;-88
2022/05/10 04:12:32;;;;;;;3.45;2.20;;;;;;;15.10;58.35;101772.69;4976620;28;102133;-86
2022/05/10 04:14:59;;;;;;;2.45;1.90;;;;;;;15.11;58.59;101771.63;4991188;28;103911;-88
2022/05/10 04:17:26;;;;;;;2.28;1.80;;;;;;;15.12;58.66;101784.22;4995198;28;102088;-87
2022/05/10 04:19:52;;;;;;;2.58;1.60;;;;;;;15.12;58.63;101788.88;4975318;28;102512;-87
2022/05/10 04:22:19;;;;;;;2.08;1.70;;;;;;;15.12;58.36;101784.22;4975830;28;102579;-87
2022/05/10 04:24:46;;;;;;;3.72;2.30;;;;;;;15.12;58.25;101784.22;4981404;28;103980;-86
2022/05/10 04:27:13;;;;;;;2.92;2.20;;;;;;;15.12;58.39;101789.72;4995086;28;101938;-85
2022/05/10 04:29:39;;;;;;;2.72;2.10;;;;;;;15.13;58.20;101791.34;4978134;28;102119;-87
2022/05/10 04:32:07;;;;;;;3.28;2.40;;;;;;;15.13;58.40;101793.25;4985516;28;102406;-86
2022/05/10 04:34:34;;;;;;;3.47;2.10;;;;;;;15.14;58.42;101795.72;4977135;28;103837;-86
2022/05/10 04:37:02;;;;;;;3.03;1.83;;;;;;;15.14;58.31;101792.16;4993618;28;102488;-86
2022/05/10 04:41:24;;;;;;;4.05;1.85;;;;;;;15.14;58.33;101792.97;4994243;28;102404;-87
2022/05/10 04:42:20;;;;;;;3.20;1.73;;;;;;;15.16;58.47;101789.16;4995003;28;102094;-86
2022/05/10 04:44:46;;;;;;;2.03;1.88;;;;;;;15.16;58.44;101789.97;4985659;28;103873;-87
2022/05/10 04:47:12;;;;;;;3.10;1.85;;;;;;;15.17;58.00;101786.13;4992067;28;101950;-86
2022/05/10 04:49:39;;;;;;;2.63;1.50;;;;;;;15.17;58.41;101780.66;4991289;28;102554;-86
2022/05/10 04:52:08;;;;;;;2.33;2.10;;;;;;;15.18;58.29;101782.28;4993849;28;102256;-87
2022/05/10 04:54:36;;;;;;;2.47;1.87;;;;;;;15.19;58.16;101772.16;4991026;28;104086;-86
2022/05/10 04:57:03;;;;;;;3.08;1.95;;;;;;;15.20;58.23;101784.75;4974813;28;102408;-88
2022/05/10 04:59:31;;;;;;;1.77;1.67;;;;;;;15.20;58.36;101779.28;4973484;28;102445;-85
2022/05/10 05:01:57;;;;;;;3.78;1.58;;;;;;;15.22;58.46;101788.03;4989419;28;102391;-85
2022/05/10 05:04:23;;;;;;;1.90;1.77;;;;;;;15.23;58.19;101789.69;4993313;28;104142;-85
2022/05/10 05:06:51;;;;;;;3.08;1.88;;;;;;;15.24;58.42;101791.34;4983475;28;102648;-86
2022/05/10 05:09:19;;;;;;;4.43;1.75;;;;;;;15.25;58.52;101792.97;4979142;28;102314;-86
2022/05/10 05:11:47;;;;;;;2.05;1.50;;;;;;;15.26;58.29;101781.75;4994272;28;102199;-85
2022/05/10 05:14:13;;;;;;;3.05;2.03;;;;;;;15.27;58.44;101790.78;4992535;28;102938;-85
2022/05/10 05:16:43;;;;;;;3.50;1.90;;;;;;;15.27;58.30;101791.59;4994456;28;101939;-85
2022/05/10 05:19:09;;;;;;;;;;;;;;;15.28;58.28;101787.75;4994030;28;102446;-85
2022/05/10 05:21:36;;;;;;;2.03;1.50;;;;;;;15.29;57.98;101794.91;4994260;28;102684;-85
2022/05/10 05:24:04;;;;;;;1.83;1.58;;;;;;;15.31;57.89;101791.88;4992543;28;104213;-86
2022/05/10 05:26:30;;;;;;;5.68;2.03;;;;;;;15.33;58.22;101792.44;4972941;28;102055;-86
2022/05/10 05:28:56;;;;;;;2.58;1.70;;;;;;;15.33;58.16;101792.44;4973225;28;102031;-84
2022/05/10 05:31:24;;;;;;;2.08;1.55;;;;;;;15.34;57.76;101791.31;4983431;28;102155;-86
2022/05/10 05:33:54;;;;;;;2.50;1.60;;;;;;;15.35;58.03;101798.44;4988213;28;103805;-85
2022/05/10 05:36:20;;;;;;;;;;;;;;;15.37;58.27;101790.78;4988899;28;101893;-85
2022/05/10 05:38:46;;;;;;;2.28;1.70;;;;;;;15.38;57.82;101792.41;4990695;28;102491;-85
2022/05/10 05:41:13;;;;;;;4.20;1.73;;;;;;;15.40;58.20;101795.72;4994110;28;102347;-85
2022/05/10 05:43:39;;;;;;;2.67;1.70;;;;;;;15.42;57.76;101798.16;4985262;28;104014;-85
2022/05/10 05:46:06;;;;;;;4.07;1.63;;;;;;;15.42;58.09;101798.97;4993769;28;102017;-85
2022/05/10 05:48:32;;;;;;;1.75;1.35;;;;;;;15.43;57.73;101800.63;4991808;28;102512;-85
2022/05/10 05:51:00;;;;;;;2.22;1.33;;;;;;;15.45;57.85;101798.44;4992845;28;102576;-85
2022/05/10 05:53:27;;;;;;;4.60;1.73;;;;;;;15.47;57.71;101801.72;4992202;28;104437;-86
2022/05/10 05:55:59;;;;;;;2.88;1.65;;;;;;;15.48;57.57;101808.03;4994330;28;101939;-84
2022/05/10 05:58:27;;;;;;;3.40;1.60;;;;;;;15.48;57.62;101797.88;4991021;28;102060;-85
2022/05/10 06:00:53;;;;;;;2.85;1.25;;;;;;;15.50;57.33;101805.81;4995067;28;102782;-85
2022/05/10 06:03:20;;;;;;;4.28;1.90;;;;;;;15.51;57.55;101802.00;4991315;28;103813;-86
2022/05/10 06:05:49;;;;;;;5.47;1.58;;;;;;;15.52;57.73;101809.94;4989770;28;103701;-86
2022/05/10 06:08:18;;;;;;;3.70;1.52;;;;;;;15.53;57.80;101795.09;4986215;28;102058;-85
2022/05/10 06:10:50;;;;;;;4.10;1.80;;;;;;;15.55;57.48;101809.38;4987733;28;102552;-85
2022/05/10 06:13:18;;;;;;;2.30;1.40;;;;;;;15.55;57.80;101806.63;4992566;28;103930;-86
2022/05/10 06:15:45;;;;;;;4.30;1.75;;;;;;;15.57;57.43;101815.41;4991751;28;102328;-89
2022/05/10 06:18:11;;;;;;;2.20;1.52;;;;;;;15.58;57.39;101814.31;4989063;28;102728;-85
2022/05/10 06:20:39;;;;;;;2.72;1.33;;;;;;;15.59;57.46;101804.97;4993012;28;102159;-85
2022/05/10 06:23:05;;;;;;;2.28;1.30;;;;;;;15.60;57.41;101812.09;4987850;28;104005;-85
2022/05/10 06:25:35;;;;;;;2.78;1.65;;;;;;;15.61;57.59;101813.78;4986949;28;102597;-85
2022/05/10 06:28:02;;;;;;;3.15;1.70;;;;;;;15.63;57.36;101816.22;5004427;28;102440;-85
2022/05/10 06:30:29;;;;;;;1.67;1.30;;;;;;;15.64;57.25;101806.88;4990008;28;102298;-85
2022/05/10 06:32:58;;;;;;;3.35;1.40;;;;;;;15.66;57.53;101809.41;4983308;28;103826;-85
2022/05/10 06:35:26;;;;;;;2.45;1.40;;;;;;;15.66;57.35;101812.13;4992531;28;102300;-86
2022/05/10 06:40:39;;;;;;;2.85;1.42;;;;;;;15.69;57.28;101812.41;4994981;28;102417;-86
2022/05/10 06:43:06;;;;;;;2.60;1.70;;;;;;;15.70;57.05;101811.28;4989784;28;103862;-85
2022/05/10 06:45:32;;;;;;;1.45;1.35;;;;;;;15.72;57.20;101816.50;4985411;28;103257;-86
2022/05/10 06:47:59;;;;;;;2.92;1.75;;;;;;;15.72;57.11;101822.78;4991887;28;102207;-86
2022/05/10 06:50:26;;;;;;;1.58;1.42;;;;;;;15.74;57.41;101817.03;4991767;28;102139;-86
2022/05/10 06:52:57;;;;;;;2.13;1.50;;;;;;;15.75;57.28;101818.69;4993732;28;104088;-86
2022/05/10 06:55:26;;;;;;;3.83;1.40;;;;;;;15.76;57.40;101817.56;4994293;28;101985;-85
2022/05/10 06:57:54;;;;;;;;;;;;;;;15.77;57.51;101816.50;4993716;28;102603;-86
2022/05/10 07:00:21;;;;;;;3.78;1.50;;;;;;;15.78;57.30;101818.13;4993175;28;102363;-85
2022/05/10 07:02:48;;;;;;;2.67;1.55;;;;;;;15.79;57.05;101814.28;4996215;28;103762;-84
2022/05/10 07:05:17;;;;;;;2.47;1.65;;;;;;;15.81;56.99;101812.09;4997579;28;102775;-85
2022/05/10 07:07:44;;;;;;;1.57;1.13;;;;;;;15.82;57.21;101813.72;4977742;28;102062;-85
2022/05/10 07:10:11;;;;;;;2.63;1.70;;;;;;;15.82;56.83;101814.53;4984281;28;102156;-85
2022/05/10 07:12:39;;;;;;;2.97;1.45;;;;;;;15.82;56.88;101814.53;4991857;28;104834;-85
2022/05/10 07:15:10;;;;;;;2.67;1.55;;;;;;;15.83;56.99;101815.34;4983014;28;102080;-85
2022/05/10 07:17:38;;;;;;;2.58;1.95;;;;;;;15.84;57.03;101828.81;4997451;28;102350;-85
2022/05/10 07:20:06;;;;;;;2.00;1.30;;;;;;;15.85;56.64;101832.38;4998168;28;103891;-84
2022/05/10 07:22:33;;;;;;;3.10;1.45;;;;;;;15.85;56.79;101822.22;4996269;28;104419;-85
2022/05/10 07:25:00;;;;;;;2.53;1.70;;;;;;;15.87;56.58;101832.94;4998092;28;101867;-85
2022/05/10 07:27:26;;;;;;;1.40;1.27;;;;;;;15.88;56.89;101822.78;4997828;28;101988;-86
2022/05/10 07:29:53;;;;;;;3.28;1.27;;;;;;;15.89;57.02;101825.22;4997621;28;102053;-86
2022/05/10 07:32:22;;;;;;;2.58;1.83;;;;;;;15.91;56.66;101834.00;4980990;28;103823;-85
2022/05/10 07:34:48;;;;;;;2.05;1.55;;;;;;;15.90;56.74;101826.84;4995359;28;102801;-84
2022/05/10 07:37:14;;;;;;;2.95;1.30;;;;;;;15.91;56.63;101820.28;4996980;28;101946;-85
2022/05/10 07:39:41;;;;;;;2.28;1.40;;;;;;;15.93;56.51;101830.97;4998134;28;102178;-87
2022/05/10 07:42:10;;;;;;;2.35;1.50;;;;;;;15.93;56.83;101830.97;4994652;28;104644;-87
2022/05/10 07:44:36;;;;;;;1.27;1.17;;;;;;;15.93;56.98;101825.47;4997273;28;102038;-91
2022/05/10 07:47:03;;;;;;;3.28;1.67;;;;;;;15.93;56.71;101829.03;4996288;28;102361;-87
2022/05/10 07:49:33;;;;;;;1.58;1.48;;;;;;;15.93;56.72;101831.78;4992091;28;102192;-88
2022/05/10 07:51:59;;;;;;;2.90;1.52;;;;;;;15.93;56.92;101829.03;4993908;28;103880;-87
2022/05/10 07:54:26;;;;;;;2.33;1.45;;;;;;;15.95;56.74;101828.78;4996091;28;102365;-87
2022/05/10 07:56:52;;;;;;;1.67;1.23;;;;;;;15.94;56.84;101827.97;4995859;28;102182;-88
2022/05/10 07:59:19;;;;;;;2.78;1.50;;;;;;;15.95;56.63;101832.34;4992610;28;102452;-88
2022/05/10 08:01:45;;;;;;;2.22;1.80;;;;;;;15.95;56.84;101829.59;4993220;28;103881;-87
2022/05/10 08:04:11;;;;;;;1.83;1.55;;;;;;;15.94;56.64;101822.47;4992189;28;102507;-86
2022/05/10 08:06:39;;;;;;;3.30;1.42;;;;;;;15.95;56.59;101826.84;4996840;28;102071;-86
2022/05/10 08:09:05;;;;;;;2.55;1.48;;;;;;;15.95;56.68;101828.78;4994986;28;102152;-85
2022/05/10 08:11:32;;;;;;;3.13;1.40;;;;;;;15.96;56.38;101831.22;4999359;28;104134;-85
2022/05/10 08:13:59;;;;;;;2.22;1.67;;;;;;;15.96;56.17;101831.22;5000555;28;102010;-85
2022/05/10 08:16:31;;;;;;;2.00;1.27;;;;;;;15.97;56.59;101826.56;4998131;28;102479;-86
2022/05/10 08:18:58;;;;;;;5.80;1.48;;;;;;;15.96;56.21;101833.97;4998903;28;102070;-86
2022/05/10 08:21:25;;;;;;;3.58;1.60;;;;;;;15.96;56.64;101831.22;4990607;28;103801;-86
2022/05/10 08:23:55;;;;;;;1.90;1.67;;;;;;;15.97;56.56;101827.38;4992574;28;102744;-86
2022/05/10 08:26:22;;;;;;;3.95;1.60;;;;;;;15.98;56.65;101830.97;4993041;28;102132;-86
2022/05/10 08:28:49;;;;;;;3.58;1.83;;;;;;;15.97;56.32;101821.88;4995182;28;102210;-85
2022/05/10 08:31:16;;;;;;;3.08;1.70;;;;;;;15.97;56.16;101827.38;4995142;28;103782;-84
2022/05/10 08:33:45;;;;;;;1.58;1.42;;;;;;;15.97;56.30;101826.56;4993943;28;102020;-85
2022/05/10 08:36:11;;;;;;;2.67;1.70;;;;;;;15.97;56.68;101821.88;4993667;28;102483;-86
2022/05/10 08:38:38;;;;;;;2.00;1.40;;;;;;;15.98;56.66;101826.31;4994308;28;102319;-85
2022/05/10 08:41:10;;;;;;;1.88;1.40;;;;;;;15.98;56.29;101829.03;4994034;28;103943;-84
2022/05/10 08:43:41;;;;;;;2.45;1.70;;;;;;;15.99;56.50;101807.91;4994487;28;102176;-87
2022/05/10 08:46:10;;;;;;;1.95;1.63;;;;;;;15.98;56.55;101818.06;4988611;28;102126;-87
2022/05/10 08:48:36;;;;;;;2.00;1.80;;;;;;;15.98;56.71;101817.25;4985978;28;102893;-85
2022/05/10 08:51:04;;;;;;;1.75;1.48;;;;;;;15.97;56.65;101815.59;4974176;28;103374;-86
2022/05/10 08:53:32;;;;;;;2.78;1.60;;;;;;;15.97;56.40;101819.13;4975791;28;102331;-84
2022/05/10 08:56:06;;;;;;;3.55;1.60;;;;;;;15.98;56.65;101818.06;4991628;28;102198;-84
2022/05/10 08:58:57;;;;;;;2.95;1.70;;;;;;;15.99;56.62;101813.38;4990387;28;102481;-87
2022/05/10 09:01:28;;;;;;;3.70;1.63;;;;;;;15.99;56.25;101810.63;4990200;28;103946;-87
2022/05/10 09:04:04;;;;;;;2.40;1.50;;;;;;;15.97;56.32;101816.41;4989925;28;103541;-91
2022/05/10 09:06:40;;;;;;;2.35;1.77;;;;;;;15.98;56.47;101812.56;4983934;28;102077;-92
2022/05/10 09:09:16;;;;;;;2.05;1.50;;;;;;;15.98;56.20;101809.81;4987480;28;102724;-92
2022/05/10 09:11:48;;;;;;;2.83;1.50;;;;;;;15.98;56.38;101801.59;4990744;28;103598;-92
2022/05/10 09:14:22;;;;;;;3.83;1.45;;;;;;;15.98;56.33;101807.06;4994907;28;101946;-91
2022/05/10 09:16:49;;;;;;;3.17;1.60;;;;;;;15.98;56.17;101806.25;4990038;28;102440;-92
2022/05/10 09:19:18;;;;;;;1.80;1.50;;;;;;;15.97;56.49;101805.41;4991745;28;102612;-91
2022/05/10 09:21:54;;;;;;;2.92;1.60;;;;;;;15.98;56.26;101806.25;4995055;28;104038;-92
2022/05/10 09:24:32;;;;;;;2.17;1.73;;;;;;;15.97;56.58;101802.66;4992117;28;102295;-93
2022/05/10 09:27:03;;;;;;;1.50;1.40;;;;;;;15.97;56.59;101802.66;4991276;28;102202;-92
2022/05/10 09:29:35;;;;;;;2.40;1.60;;;;;;;15.98;56.31;101796.09;4993600;28;102425;-91
2022/05/10 09:35:01;;;;;;;1.73;1.60;;;;;;;15.97;56.40;101783.44;4991857;28;102076;-92
2022/05/10 09:37:31;;;;;;;2.28;1.85;;;;;;;15.98;56.63;101785.13;4992349;28;102990;-92
2022/05/10 09:40:19;;;;;;;3.08;1.73;;;;;;;15.97;56.24;101777.97;4994161;28;102460;-91
2022/05/10 09:42:48;;;;;;;2.55;1.70;;;;;;;15.97;56.38;101780.69;4992517;28;104340;-91
2022/05/10 09:45:20;;;;;;;3.00;1.58;;;;;;;15.97;56.54;101777.97;4994137;28;102556;-92
2022/05/10 09:48:11;;;;;;;2.30;1.70;;;;;;;15.97;56.59;101772.47;4990264;28;102475;-91
2022/05/10 09:50:40;;;;;;;3.20;1.63;;;;;;;15.97;56.03;101777.13;4986539;28;103019;-91
2022/05/10 09:53:13;;;;;;;3.10;1.50;;;;;;;15.97;56.63;101777.97;4973416;28;103869;-93
2022/05/10 09:55:54;;;;;;;3.30;1.80;;;;;;;15.97;56.35;101775.22;4973414;28;102408;-91
2022/05/10 09:58:25;;;;;;;2.17;1.70;;;;;;;15.97;56.30;101768.91;4985178;28;102071;-91
2022/05/10 10:00:54;;;;;;;2.00;1.60;;;;;;;15.97;56.07;101766.16;4986178;28;102063;-93
2022/05/10 10:03:27;;;;;;;2.22;1.60;;;;;;;15.97;56.55;101757.91;4983439;28;104056;-93
2022/05/10 10:05:54;;;;;;;2.05;1.55;;;;;;;15.97;56.23;101758.75;4993287;28;101934;-94
2022/05/10 10:08:40;;;;;;;1.98;1.40;;;;;;;15.96;56.61;101762.59;4987948;28;102162;-93
2022/05/10 10:11:24;;;;;;;2.00;1.52;;;;;;;15.96;56.28;101762.59;4988198;28;102602;-92
2022/05/10 10:13:53;;;;;;;2.20;1.85;;;;;;;15.96;56.46;101764.53;4987455;28;103868;-94
2022/05/10 10:16:26;;;;;;;2.75;1.73;;;;;;;15.96;56.03;101753.53;4987236;28;102787;-92
2022/05/10 10:18:58;;;;;;;2.10;1.48;;;;;;;15.94;56.15;101756.59;4992710;28;102501;-91
2022/05/10 10:21:32;;;;;;;1.65;1.55;;;;;;;15.93;56.14;101757.66;4978846;28;102023;-95
2022/05/10 10:24:00;;;;;;;3.60;1.65;;;;;;;15.95;56.42;101751.91;4987964;28;104016;-92
2022/05/10 10:26:35;;;;;;;3.17;1.63;;;;;;;15.93;56.12;101749.44;4996414;28;102379;-93
2022/05/10 10:29:09;;;;;;;2.40;1.92;;;;;;;15.93;56.02;101743.13;4993458;28;101956;-91
2022/05/10 10:31:41;;;;;;;2.55;1.70;;;;;;;15.92;56.10;101753.28;4993659;28;102456;-91
2022/05/10 10:34:17;;;;;;;5.18;1.75;;;;;;;15.92;56.47;101753.28;4990659;28;103973;-92
2022/05/10 10:36:51;;;;;;;5.05;1.95;;;;;;;15.92;55.97;101750.53;4988552;28;102429;-92
2022/05/10 10:39:28;;;;;;;3.10;1.77;;;;;;;15.91;56.03;101735.19;4992322;28;102105;-93
2022/05/10 10:42:02;;;;;;;2.00;1.80;;;;;;;15.92;56.34;101742.31;4992301;28;101938;-92
2022/05/10 10:44:34;;;;;;;4.00;2.03;;;;;;;15.91;56.44;101746.16;4974559;28;104088;-93
2022/05/10 10:47:11;;;;;;;4.65;2.22;;;;;;;15.89;56.18;101742.88;4986750;28;101928;-93
2022/05/10 10:49:45;;;;;;;3.30;1.92;;;;;;;15.90;56.18;101732.69;4981598;28;102429;-92
2022/05/10 10:52:12;;;;;;;2.50;1.73;;;;;;;15.89;56.34;101740.13;4986032;28;102337;-92
2022/05/10 10:54:39;;;;;;;3.20;1.75;;;;;;;15.90;56.49;101738.19;4985527;28;104116;-92
2022/05/10 10:57:30;;;;;;;3.58;1.75;;;;;;;15.89;56.07;101737.38;4973475;28;102504;-92
2022/05/10 11:00:10;;;;;;;2.50;1.95;;;;;;;15.88;56.03;101733.00;4972540;28;102408;-93
2022/05/10 11:03:05;;;;;;;2.05;1.77;;;;;;;15.88;55.92;101722.00;4974676;28;102067;-92
2022/05/10 11:05:56;;;;;;;3.05;1.80;;;;;;;15.88;56.51;101726.69;4979365;28;104162;-92
2022/05/10 11:08:36;;;;;;;2.47;1.90;;;;;;;15.86;56.06;101719.53;4990678;28;101967;-92
2022/05/10 11:11:11;;;;;;;2.13;1.60;;;;;;;15.86;56.38;101718.72;4989619;28;102386;-92
2022/05/10 11:13:49;;;;;;;1.92;1.75;;;;;;;15.85;56.12;101711.59;4982608;28;102112;-91
2022/05/10 11:16:34;;;;;;;1.92;1.75;;;;;;;15.86;56.22;101715.97;4987760;28;104377;-91
2022/05/10 11:19:24;;;;;;;2.00;1.67;;;;;;;15.84;56.01;101707.22;4989638;28;102061;-89
2022/05/10 11:22:01;;;;;;;2.25;1.70;;;;;;;15.84;56.14;101707.22;4982155;28;102271;-92
2022/05/10 11:24:39;;;;;;;2.35;1.88;;;;;;;15.83;56.34;101711.03;4990018;28;102433;-92
2022/05/10 11:27:17;;;;;;;2.30;2.00;;;;;;;15.83;56.47;101700.06;4978835;28;103955;-91
2022/05/10 11:29:58;;;;;;;1.77;1.60;;;;;;;15.82;56.05;101690.19;4984086;28;102093;-90
2022/05/10 11:32:40;;;;;;;1.90;1.70;;;;;;;15.83;56.04;101700.91;4981499;28;102222;-92
2022/05/10 11:35:26;;;;;;;1.85;1.70;;;;;;;15.83;56.15;101697.31;4992148;28;104066;-91
2022/05/10 11:37:59;;;;;;;3.00;2.00;;;;;;;15.83;56.09;101689.09;4990891;28;103988;-91